createdAt,value
2022-09-24T00:05:40.041Z,94.17
2022-09-24T00:15:47.947Z,90.03
2022-09-24T00:26:09.014Z,92.03
2022-09-24T00:36:15.682Z,89.07
2022-09-24T00:46:26.437Z,85.27
2022-09-24T00:56:33.890Z,88.27
2022-09-24T01:06:37.821Z,85.23
2022-09-24T01:16:49.809Z,90.63
2022-09-24T01:27:05.543Z,90.10
2022-09-24T01:37:11.070Z,89.67
2022-09-24T01:47:21.855Z,88.30
2022-09-24T01:57:31.177Z,87.80
2022-09-24T02:07:40.765Z,84.13
2022-09-24T02:17:49.595Z,92.77
2022-09-24T02:27:53.343Z,88.83
2022-09-24T02:38:02.772Z,87.23
2022-09-24T02:48:08.942Z,89.63
2022-09-24T02:58:13.807Z,89.60
2022-09-24T03:08:17.471Z,85.77
2022-09-24T03:18:22.364Z,85.13
2022-09-24T03:28:25.934Z,88.30
2022-09-24T03:38:31.603Z,86.87
2022-09-24T03:48:36.832Z,89.10
2022-09-24T03:58:47.564Z,88.70
2022-09-24T04:08:51.205Z,90.00
2022-09-24T04:18:57.022Z,87.03
2022-09-24T04:29:00.438Z,86.70
2022-09-24T04:39:05.807Z,88.30
2022-09-24T04:49:10.147Z,90.63
2022-09-24T04:59:14.949Z,86.93
2022-09-24T05:09:18.582Z,86.63
2022-09-24T05:19:23.621Z,87.37
2022-09-24T05:29:27.101Z,88.27
2022-09-24T05:39:34.155Z,88.70
2022-09-24T05:49:38.768Z,91.53
2022-09-24T05:59:43.865Z,89.87
2022-09-24T06:09:47.872Z,90.83
2022-09-24T06:19:54.093Z,93.90
2022-09-24T06:29:57.561Z,92.00
2022-09-24T06:40:03.103Z,95.13
2022-09-24T06:50:08.916Z,95.43
2022-09-24T07:00:15.530Z,96.70
2022-09-24T07:10:19.284Z,96.13
2022-09-24T07:20:24.763Z,94.80
2022-09-24T07:30:28.209Z,98.43
2022-09-24T07:40:34.060Z,96.47
2022-09-24T07:50:42.778Z,95.30
2022-09-24T08:00:47.729Z,108.37
2022-09-24T08:10:52.482Z,95.23
2022-09-24T08:20:57.285Z,98.60
2022-09-24T08:31:01.467Z,98.20
2022-09-24T08:41:33.382Z,104.43
2022-09-24T08:51:42.562Z,100.00
2022-09-24T09:01:52.522Z,106.23
2022-09-24T09:12:02.191Z,103.27
2022-09-24T09:22:14.566Z,99.33
2022-09-24T09:32:39.498Z,98.87
2022-09-24T09:42:45.547Z,102.50
2022-09-24T09:52:49.106Z,105.77
2022-09-24T10:02:54.780Z,108.77
2022-09-24T10:13:09.989Z,107.40
2022-09-24T10:23:22.197Z,104.70
2022-09-24T10:33:26.089Z,104.97
2022-09-24T10:43:31.221Z,105.20
2022-09-24T10:53:51.344Z,105.80
2022-09-24T11:04:25.603Z,102.83
2022-09-24T11:14:59.855Z,101.57
2022-09-24T11:25:34.020Z,101.03
2022-09-24T11:35:58.301Z,96.07
2022-09-24T11:46:24.455Z,105.73
2022-09-24T11:56:34.775Z,120.13
2022-09-24T12:06:45.150Z,111.90
2022-09-24T12:16:54.919Z,137.20
2022-09-24T12:27:04.991Z,119.90
2022-09-24T12:37:16.467Z,120.03
2022-09-24T12:47:24.491Z,127.22
2022-09-24T12:57:32.303Z,114.07
2022-09-24T13:07:40.984Z,117.17
2022-09-24T13:17:45.165Z,119.33
2022-09-24T13:28:03.939Z,114.63
2022-09-24T13:38:19.165Z,111.97
2022-09-24T13:48:36.739Z,109.63
2022-09-24T13:58:41.784Z,120.43
2022-09-24T14:08:48.433Z,117.13
2022-09-24T14:19:03.733Z,120.70
2022-09-24T14:29:15.624Z,115.22
2022-09-24T14:39:19.220Z,115.67
2022-09-24T14:49:26.406Z,111.13
2022-09-24T14:59:32.856Z,102.47
2022-09-24T15:09:37.685Z,106.87
2022-09-24T15:19:43.968Z,102.03
2022-09-24T15:29:48.819Z,96.43
2022-09-24T15:39:54.393Z,107.60
2022-09-24T15:49:59.400Z,113.30
2022-09-24T16:00:03.285Z,100.67
2022-09-24T16:10:11.763Z,100.97
2022-09-24T16:20:15.274Z,105.37
2022-09-24T16:30:20.730Z,114.40
2022-09-24T16:40:24.313Z,106.60
2022-09-24T16:50:29.377Z,103.57
2022-09-24T17:00:32.910Z,105.90
2022-09-24T17:10:42.669Z,106.73
2022-09-24T17:20:46.522Z,92.47
2022-09-24T17:30:57.547Z,90.20
2022-09-24T17:41:05.020Z,92.43
2022-09-24T17:51:13.929Z,96.43
2022-09-24T18:01:19.484Z,92.63
2022-09-24T18:11:27.330Z,96.13
2022-09-24T18:21:31.512Z,93.03
2022-09-24T18:31:36.921Z,97.77
2022-09-24T18:41:41.670Z,101.17
2022-09-24T18:51:47.535Z,101.80
2022-09-24T19:01:51.982Z,94.47
2022-09-24T19:11:56.916Z,97.43
2022-09-24T19:22:00.666Z,101.43
2022-09-24T19:32:05.690Z,103.77
2022-09-24T19:42:09.258Z,106.60
2022-09-24T19:52:14.128Z,90.13
2022-09-24T20:02:17.703Z,102.03
2022-09-24T20:12:22.613Z,88.80
2022-09-24T20:22:27.537Z,91.43
2022-09-24T20:32:32.610Z,101.90
2022-09-24T20:42:38.503Z,98.33
2022-09-24T20:52:43.427Z,97.97
2022-09-24T21:02:47.013Z,101.23
2022-09-24T21:12:51.896Z,94.23
2022-09-24T21:22:55.352Z,97.37
2022-09-24T21:33:00.482Z,100.70
2022-09-24T21:43:05.968Z,99.17
2022-09-24T21:53:10.802Z,98.90
2022-09-24T22:03:14.321Z,93.90
2022-09-24T22:13:19.110Z,99.20
2022-09-24T22:23:23.077Z,98.57
2022-09-24T22:33:49.146Z,96.40
2022-09-24T22:43:53.609Z,96.43
2022-09-24T22:54:00.321Z,98.60
2022-09-24T23:04:04.714Z,96.33
2022-09-24T23:14:14.032Z,94.27
2022-09-24T23:24:19.803Z,96.47
2022-09-24T23:34:24.681Z,93.67
2022-09-24T23:44:28.138Z,95.17
2022-09-24T23:54:32.946Z,92.40
